createdAt,value
2023-02-11T00:02:53.349Z,-3.24
2023-02-11T00:06:01.254Z,-3.17
2023-02-11T00:09:05.640Z,-3.22
2023-02-11T00:12:08.706Z,-3.24
2023-02-11T00:15:11.880Z,-3.23
2023-02-11T00:18:15.544Z,-3.17
2023-02-11T00:21:21.738Z,-3.03
2023-02-11T00:24:24.741Z,-2.74
2023-02-11T00:27:29.537Z,-2.47
2023-02-11T00:30:32.780Z,-2.31
2023-02-11T00:33:36.283Z,-2.38
2023-02-11T00:36:39.446Z,-2.01
2023-02-11T00:39:42.314Z,-1.69
2023-02-11T00:42:45.641Z,-1.55
2023-02-11T00:45:48.823Z,-1.58
2023-02-11T00:48:53.407Z,-1.65
2023-02-11T00:51:56.368Z,-1.58
2023-02-11T00:54:59.218Z,-1.42
2023-02-11T00:58:02.432Z,-1.42
2023-02-11T01:01:05.397Z,-1.44
2023-02-11T01:04:08.504Z,-1.47
2023-02-11T01:07:11.319Z,-1.55
2023-02-11T01:10:14.742Z,-1.67
2023-02-11T01:13:17.818Z,-1.78
2023-02-11T01:16:21.358Z,-1.87
2023-02-11T01:19:24.330Z,-2.05
2023-02-11T01:22:27.304Z,-2.14
2023-02-11T01:25:30.245Z,-2.33
2023-02-11T01:28:33.462Z,-2.51
2023-02-11T01:31:36.541Z,-2.71
2023-02-11T01:34:39.560Z,-2.80
2023-02-11T01:37:42.506Z,-2.89
2023-02-11T01:40:54.945Z,-3.04
2023-02-11T01:43:58.199Z,-3.22
2023-02-11T01:47:01.831Z,-3.34
2023-02-11T01:50:04.992Z,-3.41
2023-02-11T01:53:29.052Z,-3.48
2023-02-11T01:56:53.535Z,-3.50
2023-02-11T02:00:08.705Z,-3.50
2023-02-11T02:03:19.664Z,-3.48
2023-02-11T02:07:08.750Z,-3.45
2023-02-11T02:10:19.325Z,-3.36
2023-02-11T02:13:26.100Z,-3.28
2023-02-11T02:16:36.206Z,-3.19
2023-02-11T02:20:09.420Z,-3.10
2023-02-11T02:23:25.106Z,-2.96
2023-02-11T02:26:54.015Z,-2.86
2023-02-11T02:30:31.011Z,-2.74
2023-02-11T02:33:50.342Z,-2.63
2023-02-11T02:37:09.661Z,-2.55
2023-02-11T02:40:18.512Z,-2.49
2023-02-11T02:43:23.848Z,-2.43
2023-02-11T02:46:30.403Z,-2.36
2023-02-11T02:49:33.274Z,-2.30
2023-02-11T02:52:39.102Z,-2.23
2023-02-11T02:55:54.777Z,-2.19
2023-02-11T02:59:18.512Z,-2.12
2023-02-11T03:02:26.986Z,-2.07
2023-02-11T03:05:54.727Z,-2.02
2023-02-11T03:09:01.833Z,-2.03
2023-02-11T03:12:06.121Z,-1.61
2023-02-11T03:15:10.552Z,-1.57
2023-02-11T03:18:17.248Z,-1.62
2023-02-11T03:21:21.590Z,-1.65
2023-02-11T03:24:37.093Z,-1.62
2023-02-11T03:28:10.130Z,-1.58
2023-02-11T03:31:30.645Z,-1.51
2023-02-11T03:34:44.181Z,-1.41
2023-02-11T03:38:02.470Z,-1.35
2023-02-11T03:41:08.013Z,-1.30
2023-02-11T03:44:13.913Z,-1.25
2023-02-11T03:47:21.371Z,-1.19
2023-02-11T03:50:26.299Z,-1.17
2023-02-11T03:53:29.071Z,-1.14
2023-02-11T03:56:37.274Z,-1.16
2023-02-11T03:59:51.825Z,-1.18
2023-02-11T04:02:54.677Z,-1.16
2023-02-11T04:05:57.587Z,-1.12
2023-02-11T04:09:00.433Z,-1.01
2023-02-11T04:12:03.415Z,-0.93
2023-02-11T04:15:06.968Z,-0.93
2023-02-11T04:18:09.891Z,-0.97
2023-02-11T04:21:13.293Z,-0.97
2023-02-11T04:24:16.135Z,-0.95
2023-02-11T04:27:19.233Z,-0.92
2023-02-11T04:30:22.188Z,-0.90
2023-02-11T04:33:25.122Z,-0.94
2023-02-11T04:36:28.072Z,-1.02
2023-02-11T04:39:30.911Z,-1.04
2023-02-11T04:42:33.838Z,-0.99
2023-02-11T04:45:36.698Z,-0.91
2023-02-11T04:48:39.785Z,-0.83
2023-02-11T04:51:43.258Z,-0.74
2023-02-11T04:54:46.028Z,-0.66
2023-02-11T04:57:48.958Z,-0.66
2023-02-11T05:00:52.154Z,-0.66
2023-02-11T05:03:55.843Z,-0.65
2023-02-11T05:06:58.830Z,-0.61
2023-02-11T05:10:01.661Z,-0.58
2023-02-11T05:13:04.570Z,-0.57
2023-02-11T05:16:07.386Z,-0.55
2023-02-11T05:19:10.493Z,-0.50
2023-02-11T05:22:13.375Z,-0.46
2023-02-11T05:25:16.196Z,-0.45
2023-02-11T05:28:19.129Z,-0.46
2023-02-11T05:31:21.946Z,-0.48
2023-02-11T05:34:24.756Z,-0.51
2023-02-11T05:37:27.587Z,-0.57
2023-02-11T05:40:30.405Z,-0.61
2023-02-11T05:43:35.417Z,-0.63
2023-02-11T05:46:38.365Z,-0.62
2023-02-11T05:49:41.482Z,-0.58
2023-02-11T05:52:44.281Z,-0.58
2023-02-11T05:55:47.299Z,-0.58
2023-02-11T05:58:50.215Z,-0.58
2023-02-11T06:01:53.034Z,-0.62
2023-02-11T06:04:55.931Z,-0.65
2023-02-11T06:07:58.942Z,-0.65
2023-02-11T06:11:01.702Z,-0.63
2023-02-11T06:14:04.728Z,-0.63
2023-02-11T06:17:07.621Z,-0.61
2023-02-11T06:20:11.068Z,-0.58
2023-02-11T06:23:14.024Z,-0.55
2023-02-11T06:26:21.334Z,-0.51
2023-02-11T06:29:24.308Z,-0.48
2023-02-11T06:32:45.640Z,-0.45
2023-02-11T06:35:49.097Z,-0.40
2023-02-11T06:38:52.627Z,-0.37
2023-02-11T06:41:55.740Z,-0.33
2023-02-11T06:44:58.652Z,-0.29
2023-02-11T06:48:01.444Z,-0.24
2023-02-11T06:51:06.758Z,-0.19
2023-02-11T06:54:11.255Z,-0.13
2023-02-11T06:57:14.090Z,-0.06
2023-02-11T07:00:17.481Z,0.01
2023-02-11T07:03:20.374Z,0.07
2023-02-11T07:06:27.307Z,0.15
2023-02-11T07:09:30.467Z,0.20
2023-02-11T07:12:33.292Z,0.29
2023-02-11T07:15:37.694Z,0.40
2023-02-11T07:18:40.787Z,0.52
2023-02-11T07:21:43.777Z,0.64
2023-02-11T07:24:46.557Z,0.76
2023-02-11T07:27:50.358Z,0.88
2023-02-11T07:30:53.181Z,1.00
2023-02-11T07:33:59.953Z,1.15
2023-02-11T07:37:03.191Z,1.32
2023-02-11T07:40:07.752Z,1.45
2023-02-11T07:43:10.709Z,1.60
2023-02-11T07:46:20.496Z,1.76
2023-02-11T07:49:23.416Z,1.92
2023-02-11T07:52:30.162Z,2.02
2023-02-11T07:55:33.829Z,2.08
2023-02-11T07:58:37.153Z,2.06
2023-02-11T08:01:40.221Z,1.96
2023-02-11T08:04:43.076Z,1.82
2023-02-11T08:07:45.952Z,1.71
2023-02-11T08:10:49.164Z,1.70
2023-02-11T08:13:53.360Z,1.85
2023-02-11T08:16:56.222Z,2.07
2023-02-11T08:19:59.008Z,2.35
2023-02-11T08:23:02.297Z,2.59
2023-02-11T08:26:07.332Z,2.80
2023-02-11T08:29:14.169Z,3.01
2023-02-11T08:32:17.032Z,3.39
2023-02-11T08:35:19.881Z,3.68
2023-02-11T08:38:22.731Z,3.85
2023-02-11T08:41:26.620Z,3.95
2023-02-11T08:44:30.164Z,4.39
2023-02-11T08:47:33.449Z,5.72
2023-02-11T08:50:39.391Z,6.73
2023-02-11T08:53:42.652Z,6.16
2023-02-11T08:56:45.750Z,5.76
2023-02-11T08:59:48.670Z,5.52
2023-02-11T09:02:51.653Z,5.34
2023-02-11T09:05:54.946Z,5.27
2023-02-11T09:08:58.930Z,5.22
2023-02-11T09:12:01.885Z,5.24
2023-02-11T09:15:05.127Z,5.36
2023-02-11T09:18:07.961Z,5.46
2023-02-11T09:21:11.315Z,5.54
2023-02-11T09:24:14.418Z,5.70
2023-02-11T09:27:17.250Z,5.92
2023-02-11T09:30:21.530Z,6.10
2023-02-11T09:33:24.480Z,6.23
2023-02-11T09:36:30.221Z,6.25
2023-02-11T09:39:33.046Z,6.24
2023-02-11T09:42:53.134Z,6.23
2023-02-11T09:45:57.178Z,6.20
2023-02-11T09:49:00.791Z,6.15
2023-02-11T09:52:26.770Z,6.07
2023-02-11T09:55:42.933Z,6.13
2023-02-11T09:58:47.316Z,6.07
2023-02-11T10:02:02.656Z,6.05
2023-02-11T10:05:28.985Z,6.02
2023-02-11T10:08:50.247Z,5.97
2023-02-11T10:12:02.140Z,5.98
2023-02-11T10:15:27.468Z,5.99
2023-02-11T10:19:05.282Z,6.02
2023-02-11T10:22:36.253Z,5.94
2023-02-11T10:25:45.553Z,6.03
2023-02-11T10:28:52.467Z,6.09
2023-02-11T10:31:58.188Z,6.20
2023-02-11T10:35:10.529Z,6.24
2023-02-11T10:38:13.457Z,6.31
2023-02-11T10:41:35.191Z,6.43
2023-02-11T10:44:43.757Z,6.41
2023-02-11T10:47:46.556Z,6.35
2023-02-11T10:50:49.697Z,6.30
2023-02-11T10:54:08.451Z,6.24
2023-02-11T10:57:19.926Z,6.05
2023-02-11T11:00:43.201Z,5.95
2023-02-11T11:03:49.561Z,5.66
2023-02-11T11:06:52.561Z,5.40
2023-02-11T11:10:08.562Z,5.24
2023-02-11T11:13:23.420Z,5.28
2023-02-11T11:16:30.249Z,5.44
2023-02-11T11:19:39.372Z,5.62
2023-02-11T11:22:43.571Z,5.70
2023-02-11T11:26:01.329Z,5.68
2023-02-11T11:29:17.566Z,5.71
2023-02-11T11:32:29.239Z,5.85
2023-02-11T11:35:34.934Z,5.89
2023-02-11T11:38:44.585Z,6.04
2023-02-11T11:41:53.498Z,6.21
2023-02-11T11:45:00.992Z,6.41
2023-02-11T11:48:33.176Z,6.69
2023-02-11T11:51:39.964Z,6.88
2023-02-11T11:54:49.818Z,6.99
2023-02-11T11:57:52.898Z,6.97
2023-02-11T12:01:16.136Z,6.95
2023-02-11T12:04:21.907Z,6.91
2023-02-11T12:07:46.003Z,6.77
2023-02-11T12:10:58.198Z,6.61
2023-02-11T12:14:06.732Z,6.40
2023-02-11T12:17:27.225Z,6.10
2023-02-11T12:20:46.584Z,5.81
2023-02-11T12:23:55.558Z,5.55
2023-02-11T12:27:14.361Z,5.37
2023-02-11T12:30:46.028Z,5.16
2023-02-11T12:34:07.673Z,5.10
2023-02-11T12:37:22.978Z,5.22
2023-02-11T12:40:32.013Z,5.12
2023-02-11T12:43:40.969Z,4.84
2023-02-11T12:46:53.525Z,5.08
2023-02-11T12:50:05.826Z,6.96
2023-02-11T12:53:11.652Z,7.32
2023-02-11T12:56:14.451Z,6.46
2023-02-11T12:59:55.441Z,5.66
2023-02-11T13:03:12.783Z,5.03
2023-02-11T13:06:21.472Z,4.64
2023-02-11T13:09:30.723Z,5.08
2023-02-11T13:12:54.251Z,7.36
2023-02-11T13:16:08.463Z,7.45
2023-02-11T13:19:42.751Z,6.26
2023-02-11T13:22:57.263Z,5.39
2023-02-11T13:26:11.111Z,4.85
2023-02-11T13:29:20.305Z,4.58
2023-02-11T13:32:23.302Z,5.56
2023-02-11T13:35:33.063Z,7.11
2023-02-11T13:38:37.907Z,7.10
2023-02-11T13:41:41.943Z,6.17
2023-02-11T13:44:44.826Z,5.39
2023-02-11T13:47:52.413Z,4.86
2023-02-11T13:51:05.154Z,5.93
2023-02-11T13:54:17.853Z,5.96
2023-02-11T13:57:20.652Z,5.13
2023-02-11T14:00:36.898Z,4.95
2023-02-11T14:03:58.894Z,6.01
2023-02-11T14:07:49.680Z,5.96
2023-02-11T14:11:01.886Z,5.83
2023-02-11T14:14:27.973Z,5.68
2023-02-11T14:17:33.840Z,5.64
2023-02-11T14:20:45.793Z,5.59
2023-02-11T14:23:50.728Z,5.54
2023-02-11T14:27:00.836Z,5.69
2023-02-11T14:30:22.326Z,6.33
2023-02-11T14:34:02.529Z,7.50
2023-02-11T14:37:15.251Z,6.71
2023-02-11T14:40:48.161Z,5.65
2023-02-11T14:43:58.588Z,5.71
2023-02-11T14:47:01.907Z,7.91
2023-02-11T14:50:09.815Z,8.18
2023-02-11T14:53:16.980Z,6.74
2023-02-11T14:56:24.744Z,5.55
2023-02-11T14:59:27.628Z,5.68
2023-02-11T15:02:37.327Z,7.48
2023-02-11T15:05:40.505Z,7.40
2023-02-11T15:08:47.425Z,6.20
2023-02-11T15:11:52.413Z,5.16
2023-02-11T15:14:59.329Z,6.04
2023-02-11T15:18:04.445Z,7.42
2023-02-11T15:21:08.397Z,6.45
2023-02-11T15:24:26.696Z,5.38
2023-02-11T15:27:38.644Z,6.15
2023-02-11T15:30:42.025Z,7.52
2023-02-11T15:33:45.436Z,6.88
2023-02-11T15:36:48.430Z,5.64
2023-02-11T15:39:52.832Z,6.11
2023-02-11T15:42:58.944Z,7.75
2023-02-11T15:46:02.431Z,7.54
2023-02-11T15:49:06.732Z,6.41
2023-02-11T15:52:11.272Z,5.79
2023-02-11T15:55:16.505Z,7.49
2023-02-11T15:58:20.228Z,8.29
2023-02-11T16:01:36.298Z,6.95
2023-02-11T16:04:39.466Z,5.64
2023-02-11T16:07:49.959Z,5.88
2023-02-11T16:11:08.641Z,7.92
2023-02-11T16:14:30.319Z,8.81
2023-02-11T16:17:33.544Z,7.05
2023-02-11T16:20:37.013Z,6.27
2023-02-11T16:23:44.443Z,6.67
2023-02-11T16:26:53.169Z,6.66
2023-02-11T16:30:04.059Z,6.67
2023-02-11T16:33:10.797Z,6.97
2023-02-11T16:36:19.024Z,7.90
2023-02-11T16:39:23.028Z,8.53
2023-02-11T16:42:27.770Z,7.81
2023-02-11T16:45:39.279Z,6.15
2023-02-11T16:48:46.177Z,5.63
2023-02-11T16:51:52.662Z,7.08
2023-02-11T16:54:55.623Z,7.88
2023-02-11T16:57:58.900Z,8.36
2023-02-11T17:01:02.494Z,8.07
2023-02-11T17:04:07.094Z,6.66
2023-02-11T17:07:10.681Z,5.76
2023-02-11T17:10:20.210Z,6.75
2023-02-11T17:13:23.343Z,7.69
2023-02-11T17:16:27.890Z,8.08
2023-02-11T17:19:31.175Z,7.23
2023-02-11T17:22:34.647Z,6.18
2023-02-11T17:25:38.885Z,7.50
2023-02-11T17:28:42.398Z,8.56
2023-02-11T17:31:45.766Z,7.91
2023-02-11T17:34:49.197Z,6.25
2023-02-11T17:37:52.485Z,6.72
2023-02-11T17:41:00.433Z,7.99
2023-02-11T17:44:04.389Z,8.21
2023-02-11T17:47:07.945Z,6.90
2023-02-11T17:50:13.461Z,6.22
2023-02-11T17:53:16.951Z,7.66
2023-02-11T17:56:20.798Z,8.22
2023-02-11T17:59:24.177Z,7.97
2023-02-11T18:02:27.614Z,6.48
2023-02-11T18:05:36.552Z,6.21
2023-02-11T18:08:39.722Z,7.79
2023-02-11T18:11:43.097Z,8.60
2023-02-11T18:14:46.613Z,7.82
2023-02-11T18:17:49.977Z,6.35
2023-02-11T18:21:01.369Z,6.94
2023-02-11T18:24:06.997Z,8.13
2023-02-11T18:27:10.398Z,8.63
2023-02-11T18:30:20.799Z,7.34
2023-02-11T18:33:24.002Z,6.61
2023-02-11T18:36:27.340Z,7.88
2023-02-11T18:39:30.261Z,8.86
2023-02-11T18:42:36.065Z,8.38
2023-02-11T18:45:49.043Z,6.75
2023-02-11T18:48:55.847Z,6.43
2023-02-11T18:51:59.473Z,7.61
2023-02-11T18:55:25.936Z,8.35
2023-02-11T18:58:33.592Z,8.63
2023-02-11T19:01:42.655Z,7.35
2023-02-11T19:04:48.986Z,6.65
2023-02-11T19:07:55.549Z,7.79
2023-02-11T19:11:15.836Z,8.57
2023-02-11T19:14:28.522Z,8.21
2023-02-11T19:17:31.684Z,6.69
2023-02-11T19:20:34.683Z,7.27
2023-02-11T19:23:38.575Z,8.48
2023-02-11T19:26:42.756Z,8.57
2023-02-11T19:29:45.990Z,7.20
2023-02-11T19:32:52.634Z,6.48
2023-02-11T19:35:55.788Z,7.74
2023-02-11T19:39:02.880Z,8.64
2023-02-11T19:42:06.130Z,9.13
2023-02-11T19:45:10.360Z,7.85
2023-02-11T19:48:13.537Z,6.65
2023-02-11T19:51:17.540Z,7.51
2023-02-11T19:54:20.853Z,8.30
2023-02-11T19:57:24.113Z,8.67
2023-02-11T20:00:27.333Z,7.78
2023-02-11T20:03:30.394Z,6.64
2023-02-11T20:06:35.129Z,7.47
2023-02-11T20:09:38.513Z,8.34
2023-02-11T20:12:44.140Z,8.48
2023-02-11T20:16:06.842Z,8.96
2023-02-11T20:19:15.387Z,7.78
2023-02-11T20:22:18.447Z,6.91
2023-02-11T20:25:21.777Z,8.09
2023-02-11T20:28:25.114Z,9.38
2023-02-11T20:31:34.811Z,9.72
2023-02-11T20:34:37.793Z,8.22
2023-02-11T20:37:44.044Z,7.24
2023-02-11T20:40:47.356Z,8.37
2023-02-11T20:43:53.757Z,9.19
2023-02-11T20:46:56.799Z,9.40
2023-02-11T20:49:59.790Z,8.33
2023-02-11T20:53:02.978Z,7.14
2023-02-11T20:56:08.387Z,7.24
2023-02-11T20:59:14.043Z,7.72
2023-02-11T21:02:17.704Z,7.91
2023-02-11T21:05:20.620Z,8.35
2023-02-11T21:08:23.734Z,9.64
2023-02-11T21:11:26.798Z,9.66
2023-02-11T21:14:30.012Z,8.26
2023-02-11T21:17:33.292Z,7.58
2023-02-11T21:20:36.392Z,8.94
2023-02-11T21:23:43.168Z,10.09
2023-02-11T21:26:46.329Z,10.84
2023-02-11T21:29:54.562Z,10.05
2023-02-11T21:33:00.972Z,8.42
2023-02-11T21:36:07.904Z,7.55
2023-02-11T21:39:13.735Z,8.73
2023-02-11T21:42:17.897Z,9.73
2023-02-11T21:45:20.965Z,10.46
2023-02-11T21:48:25.801Z,9.10
2023-02-11T21:51:28.774Z,7.64
2023-02-11T21:54:32.350Z,7.23
2023-02-11T21:57:35.347Z,8.11
2023-02-11T22:00:38.596Z,9.38
2023-02-11T22:03:42.518Z,9.83
2023-02-11T22:06:45.432Z,9.99
2023-02-11T22:09:50.440Z,9.54
2023-02-11T22:12:53.418Z,8.21
2023-02-11T22:16:02.840Z,7.76
2023-02-11T22:19:07.620Z,9.24
2023-02-11T22:22:10.722Z,10.16
2023-02-11T22:25:13.704Z,11.14
2023-02-11T22:28:16.852Z,10.66
2023-02-11T22:31:29.458Z,8.89
2023-02-11T22:34:32.478Z,7.61
2023-02-11T22:37:35.386Z,8.24
2023-02-11T22:40:43.337Z,9.84
2023-02-11T22:43:46.713Z,10.57
2023-02-11T22:46:50.816Z,10.31
2023-02-11T22:49:53.965Z,8.73
2023-02-11T22:52:59.793Z,7.43
2023-02-11T22:56:15.032Z,7.89
2023-02-11T22:59:18.587Z,9.64
2023-02-11T23:02:21.853Z,10.34
2023-02-11T23:05:24.970Z,10.58
2023-02-11T23:08:29.224Z,9.29
2023-02-11T23:11:33.287Z,7.87
2023-02-11T23:14:36.213Z,8.03
2023-02-11T23:17:39.124Z,9.39
2023-02-11T23:20:43.943Z,10.00
2023-02-11T23:23:47.733Z,9.82
2023-02-11T23:26:51.238Z,9.72
2023-02-11T23:29:56.913Z,9.77
2023-02-11T23:32:59.784Z,9.58
2023-02-11T23:36:02.626Z,9.49
2023-02-11T23:39:05.935Z,9.30
2023-02-11T23:42:09.189Z,9.27
2023-02-11T23:45:12.338Z,9.00
2023-02-11T23:48:15.195Z,8.78
2023-02-11T23:51:19.574Z,9.10
2023-02-11T23:54:23.092Z,10.12
2023-02-11T23:57:25.992Z,10.28
